Luxembourg, Luxembourg
Current Conditions -  °F | °C
As of 9:50 PM on Thursday 20 Nov 2014 (Local Time) from ELLX Reporting Station
Clear Clear  
Wind Chill: 35°   Ceiling: Unl
Heat Index: 41°   Visibility: 5mi
Dew Point: 39°   Wind: 9mph
Humidity: 93%   Direction: 60°ENE
Pressure: 30.21"   Gusts: NA
Location:  49.62°N, 6.12°E
Report Text: ELLX 202050Z 06008KT 020V100 8000 NSC 05/04 Q1023 NOSIG
Loading
Personal Weather Stations






























Interactive Weather Map New forecast layout! Learn more

10-Day Weather Forecast

Advertisements
Track Severe Weather on mobile